JAT262 LYBE-LFPG
Flight info
| Callsign | JAT262 |
|---|---|
| Flight time | 2h 14m |
| Altitude | 32000 |
| Route | TUVAR DCT NOVLO DCT RUGOG DCT PEVAL DCT RODRU DCT OMETO DCT AOSTA DCT ORSUD DCT MOLUS DCT UNKIR DCT GIVRI DCT TINIL |
| Aircraft | B722/M-SDFHIRWY/C |
Departure
| Time | 2026-05-04 14:38 |
|---|---|
| Airport | Belgrade Nikola Tesla Airport (LYBE) |
Arrival
| Time | 2026-05-04 16:52 |
|---|---|
| Airport | Charles de Gaulle International Airport (LFPG) |
| Time | Latitude | Longitude | Altitude | Speed | Heading |
|---|---|---|---|---|---|
| 2026-05-04 14:10 | 44.81743 | 20.29425 | 325 ft | 0 kts | 122° |
| 2026-05-04 14:28 | 44.81744 | 20.29423 | 326 ft | 2 kts | 122° |
| 2026-05-04 14:28 | 44.81752 | 20.29403 | 325 ft | 2 kts | 122° |
| 2026-05-04 14:29 | 44.81769 | 20.29363 | 322 ft | 2 kts | 103° |
| 2026-05-04 14:29 | 44.81746 | 20.29334 | 323 ft | 1 kts | 32° |
| 2026-05-04 14:30 | 44.81745 | 20.29333 | 323 ft | 0 kts | 32° |
| 2026-05-04 14:33 | 44.81758 | 20.29344 | 324 ft | 5 kts | 32° |
| 2026-05-04 14:33 | 44.81805 | 20.29386 | 325 ft | 11 kts | 32° |
| 2026-05-04 14:33 | 44.81877 | 20.29449 | 325 ft | 13 kts | 32° |
| 2026-05-04 14:33 | 44.81967 | 20.29529 | 325 ft | 17 kts | 32° |
| 2026-05-04 14:34 | 44.82054 | 20.29605 | 326 ft | 12 kts | 31° |
| 2026-05-04 14:34 | 44.82119 | 20.29579 | 327 ft | 11 kts | 305° |
| 2026-05-04 14:34 | 44.82165 | 20.29478 | 326 ft | 13 kts | 302° |
| 2026-05-04 14:34 | 44.82222 | 20.29350 | 328 ft | 17 kts | 302° |
| 2026-05-04 14:35 | 44.82289 | 20.29200 | 327 ft | 20 kts | 302° |
| 2026-05-04 14:35 | 44.82361 | 20.29034 | 326 ft | 20 kts | 301° |
| 2026-05-04 14:35 | 44.82420 | 20.28901 | 326 ft | 14 kts | 307° |
| 2026-05-04 14:35 | 44.82501 | 20.28855 | 326 ft | 9 kts | 7° |
| 2026-05-04 14:36 | 44.82559 | 20.28903 | 327 ft | 10 kts | 42° |
| 2026-05-04 14:36 | 44.82603 | 20.28992 | 326 ft | 12 kts | 69° |
| 2026-05-04 14:36 | 44.82623 | 20.29095 | 325 ft | 6 kts | 65° |
| 2026-05-04 14:36 | 44.82628 | 20.29145 | 326 ft | 6 kts | 112° |
| 2026-05-04 14:37 | 44.82608 | 20.29196 | 326 ft | 16 kts | 121° |
| 2026-05-04 14:37 | 44.82446 | 20.29561 | 327 ft | 73 kts | 122° |
| 2026-05-04 14:37 | 44.82086 | 20.30370 | 325 ft | 122 kts | 122° |
| 2026-05-04 14:37 | 44.81563 | 20.31558 | 352 ft | 160 kts | 123° |
| 2026-05-04 14:38 | 44.80966 | 20.32919 | 783 ft | 166 kts | 122° |
| 2026-05-04 14:38 | 44.80361 | 20.34326 | 1362 ft | 170 kts | 121° |
| 2026-05-04 14:38 | 44.79773 | 20.35799 | 1976 ft | 175 kts | 119° |
| 2026-05-04 14:38 | 44.79203 | 20.37385 | 2296 ft | 190 kts | 118° |
| 2026-05-04 14:39 | 44.78555 | 20.39073 | 2582 ft | 203 kts | 121° |
| 2026-05-04 14:39 | 44.77802 | 20.40861 | 2932 ft | 222 kts | 122° |
| 2026-05-04 14:39 | 44.76984 | 20.42813 | 3559 ft | 244 kts | 121° |
| 2026-05-04 14:40 | 44.75194 | 20.47123 | 5213 ft | 259 kts | 121° |
| 2026-05-04 14:40 | 44.74245 | 20.49308 | 6153 ft | 262 kts | 123° |
| 2026-05-04 14:40 | 44.73246 | 20.51464 | 7105 ft | 264 kts | 124° |
| 2026-05-04 14:40 | 44.72207 | 20.53623 | 7932 ft | 269 kts | 124° |
| 2026-05-04 14:41 | 44.71122 | 20.55799 | 8725 ft | 274 kts | 124° |
| 2026-05-04 14:41 | 44.70000 | 20.57992 | 9570 ft | 279 kts | 126° |
| 2026-05-04 14:41 | 44.66490 | 20.60288 | 10824 ft | 309 kts | 184° |
| 2026-05-04 14:42 | 44.62857 | 20.56923 | 11829 ft | 337 kts | 236° |
| 2026-05-04 14:42 | 44.61641 | 20.54083 | 12343 ft | 349 kts | 243° |
| 2026-05-04 14:42 | 44.60462 | 20.51038 | 12852 ft | 362 kts | 242° |
| 2026-05-04 14:43 | 44.59202 | 20.47906 | 13477 ft | 371 kts | 241° |
| 2026-05-04 14:43 | 44.57886 | 20.44744 | 14124 ft | 378 kts | 240° |
| 2026-05-04 14:43 | 44.56510 | 20.41551 | 14737 ft | 385 kts | 239° |
| 2026-05-04 14:43 | 44.55123 | 20.38404 | 15503 ft | 386 kts | 239° |
| 2026-05-04 14:44 | 44.53692 | 20.35186 | 16118 ft | 391 kts | 239° |
| 2026-05-04 14:44 | 44.52238 | 20.31935 | 16789 ft | 395 kts | 239° |
| 2026-05-04 14:44 | 44.50774 | 20.28661 | 17455 ft | 399 kts | 239° |
| 2026-05-04 14:44 | 44.49297 | 20.25346 | 18070 ft | 403 kts | 239° |
| 2026-05-04 14:45 | 44.47933 | 20.21911 | 18605 ft | 405 kts | 250° |
| 2026-05-04 14:45 | 44.47436 | 20.18064 | 19130 ft | 402 kts | 275° |
| 2026-05-04 14:45 | 44.48062 | 20.14305 | 19689 ft | 396 kts | 298° |
| 2026-05-04 14:45 | 44.49609 | 20.11152 | 20213 ft | 393 kts | 314° |
| 2026-05-04 14:46 | 44.51555 | 20.08450 | 20733 ft | 394 kts | 321° |
| 2026-05-04 14:46 | 44.53691 | 20.06069 | 21370 ft | 392 kts | 326° |
| 2026-05-04 14:46 | 44.55910 | 20.03836 | 21988 ft | 392 kts | 327° |
| 2026-05-04 14:46 | 44.58136 | 20.01641 | 22621 ft | 391 kts | 327° |
| 2026-05-04 14:47 | 44.60339 | 19.99468 | 23215 ft | 392 kts | 327° |
| 2026-05-04 14:47 | 44.62580 | 19.97257 | 23716 ft | 395 kts | 327° |
| 2026-05-04 14:47 | 44.64832 | 19.95022 | 24131 ft | 397 kts | 326° |
| 2026-05-04 14:47 | 44.67013 | 19.92615 | 24557 ft | 400 kts | 322° |
| 2026-05-04 14:48 | 44.69161 | 19.90108 | 24966 ft | 402 kts | 322° |
| 2026-05-04 14:48 | 44.71318 | 19.87591 | 25374 ft | 404 kts | 322° |
| 2026-05-04 14:48 | 44.73485 | 19.85062 | 25784 ft | 406 kts | 322° |
| 2026-05-04 14:48 | 44.75660 | 19.82519 | 26221 ft | 408 kts | 322° |
| 2026-05-04 14:49 | 44.77714 | 19.79813 | 26640 ft | 411 kts | 316° |
| 2026-05-04 14:49 | 44.79653 | 19.76832 | 27082 ft | 414 kts | 313° |
| 2026-05-04 14:49 | 44.81533 | 19.73741 | 27495 ft | 417 kts | 313° |
| 2026-05-04 14:49 | 44.83416 | 19.70619 | 27895 ft | 419 kts | 313° |
| 2026-05-04 14:50 | 44.85327 | 19.67510 | 28299 ft | 421 kts | 313° |
| 2026-05-04 14:50 | 44.87281 | 19.64404 | 28687 ft | 423 kts | 314° |
| 2026-05-04 14:50 | 44.89252 | 19.61319 | 29070 ft | 424 kts | 314° |
| 2026-05-04 14:50 | 44.91240 | 19.58231 | 29442 ft | 426 kts | 314° |
| 2026-05-04 14:51 | 44.93241 | 19.55126 | 29798 ft | 428 kts | 314° |
| 2026-05-04 14:51 | 44.95247 | 19.52005 | 30152 ft | 430 kts | 314° |
| 2026-05-04 14:51 | 44.97261 | 19.48861 | 30449 ft | 432 kts | 314° |
| 2026-05-04 14:51 | 44.99279 | 19.45697 | 30744 ft | 434 kts | 313° |
| 2026-05-04 14:52 | 45.01123 | 19.42301 | 31018 ft | 438 kts | 305° |
| 2026-05-04 14:52 | 45.02641 | 19.38547 | 31297 ft | 442 kts | 299° |
| 2026-05-04 14:52 | 45.03918 | 19.34641 | 31539 ft | 444 kts | 296° |
| 2026-05-04 14:52 | 45.05171 | 19.30637 | 31800 ft | 446 kts | 296° |
| 2026-05-04 14:53 | 45.06434 | 19.26604 | 31968 ft | 450 kts | 296° |
| 2026-05-04 14:53 | 45.07714 | 19.22523 | 32074 ft | 455 kts | 296° |
| 2026-05-04 14:53 | 45.10268 | 19.14258 | 32076 ft | 458 kts | 295° |
| 2026-05-04 14:54 | 45.12522 | 19.05822 | 32064 ft | 460 kts | 286° |
| 2026-05-04 14:54 | 45.13334 | 18.96882 | 32064 ft | 463 kts | 273° |
| 2026-05-04 14:55 | 45.13291 | 18.87738 | 32069 ft | 461 kts | 275° |
| 2026-05-04 14:55 | 45.13731 | 18.78692 | 32072 ft | 460 kts | 277° |
| 2026-05-04 14:56 | 45.14214 | 18.69711 | 32065 ft | 460 kts | 277° |
| 2026-05-04 14:56 | 45.14702 | 18.60678 | 32062 ft | 460 kts | 277° |
| 2026-05-04 14:57 | 45.15191 | 18.51636 | 32053 ft | 460 kts | 277° |
| 2026-05-04 14:57 | 45.15681 | 18.42597 | 32055 ft | 460 kts | 277° |
| 2026-05-04 14:58 | 45.16146 | 18.33545 | 32045 ft | 460 kts | 276° |
| 2026-05-04 14:58 | 45.16604 | 18.24497 | 32041 ft | 460 kts | 276° |
| 2026-05-04 14:59 | 45.17059 | 18.15503 | 32048 ft | 460 kts | 276° |
| 2026-05-04 15:00 | 45.17746 | 18.01933 | 32041 ft | 458 kts | 276° |
| 2026-05-04 15:00 | 45.18200 | 17.92949 | 32038 ft | 456 kts | 276° |
| 2026-05-04 15:01 | 45.18879 | 17.79553 | 32036 ft | 455 kts | 276° |
| 2026-05-04 15:01 | 45.19333 | 17.70614 | 32045 ft | 454 kts | 276° |
| 2026-05-04 15:02 | 45.19732 | 17.61690 | 32041 ft | 453 kts | 275° |
| 2026-05-04 15:02 | 45.20091 | 17.52766 | 32037 ft | 453 kts | 275° |
| 2026-05-04 15:03 | 45.20451 | 17.43863 | 32033 ft | 452 kts | 275° |
| 2026-05-04 15:03 | 45.20811 | 17.34962 | 32035 ft | 451 kts | 275° |
| 2026-05-04 15:04 | 45.21169 | 17.26131 | 32035 ft | 451 kts | 275° |
| 2026-05-04 15:04 | 45.21529 | 17.17252 | 32034 ft | 450 kts | 275° |
| 2026-05-04 15:05 | 45.21873 | 17.08383 | 32032 ft | 450 kts | 274° |
| 2026-05-04 15:05 | 45.22132 | 16.99524 | 32029 ft | 450 kts | 274° |
| 2026-05-04 15:06 | 45.22290 | 16.90653 | 32033 ft | 449 kts | 270° |
| 2026-05-04 15:07 | 45.22838 | 16.77434 | 32031 ft | 447 kts | 275° |
| 2026-05-04 15:07 | 45.23180 | 16.68625 | 32030 ft | 447 kts | 274° |
| 2026-05-04 15:08 | 45.23459 | 16.59808 | 32026 ft | 447 kts | 274° |
| 2026-05-04 15:08 | 45.23736 | 16.51053 | 32026 ft | 447 kts | 274° |
| 2026-05-04 15:09 | 45.24015 | 16.42232 | 32026 ft | 447 kts | 274° |
| 2026-05-04 15:09 | 45.24277 | 16.33425 | 32025 ft | 447 kts | 273° |
| 2026-05-04 15:10 | 45.24664 | 16.20232 | 32026 ft | 446 kts | 272° |
| 2026-05-04 15:11 | 45.25052 | 16.07058 | 32037 ft | 445 kts | 272° |
| 2026-05-04 15:11 | 45.25278 | 15.98287 | 32037 ft | 444 kts | 275° |
| 2026-05-04 15:12 | 45.25455 | 15.89521 | 32040 ft | 444 kts | 273° |
| 2026-05-04 15:12 | 45.25752 | 15.80764 | 32040 ft | 444 kts | 271° |
| 2026-05-04 15:13 | 45.25959 | 15.72086 | 32039 ft | 442 kts | 274° |
| 2026-05-04 15:13 | 45.26100 | 15.63349 | 32043 ft | 443 kts | 273° |
| 2026-05-04 15:14 | 45.26387 | 15.56065 | 32050 ft | 445 kts | 272° |
| 2026-05-04 15:14 | 45.26464 | 15.47244 | 32059 ft | 447 kts | 272° |
| 2026-05-04 15:15 | 45.26671 | 15.38401 | 32067 ft | 449 kts | 273° |
| 2026-05-04 15:15 | 45.26924 | 15.29529 | 32070 ft | 450 kts | 272° |
| 2026-05-04 15:16 | 45.27241 | 15.16195 | 32077 ft | 451 kts | 273° |
| 2026-05-04 15:17 | 45.27588 | 15.02821 | 32096 ft | 452 kts | 272° |
| 2026-05-04 15:17 | 45.27839 | 14.89435 | 32104 ft | 452 kts | 272° |
| 2026-05-04 15:18 | 45.27941 | 14.80580 | 32118 ft | 451 kts | 272° |
| 2026-05-04 15:19 | 45.28216 | 14.67222 | 32108 ft | 451 kts | 271° |
| 2026-05-04 15:19 | 45.28417 | 14.53868 | 32106 ft | 450 kts | 272° |
| 2026-05-04 15:20 | 45.28716 | 14.44984 | 32116 ft | 450 kts | 269° |
| 2026-05-04 15:20 | 45.28757 | 14.36158 | 32117 ft | 450 kts | 270° |
| 2026-05-04 15:21 | 45.28908 | 14.27269 | 32110 ft | 450 kts | 271° |
| 2026-05-04 15:22 | 45.29091 | 14.13930 | 32116 ft | 450 kts | 270° |
| 2026-05-04 15:22 | 45.29276 | 14.00624 | 32108 ft | 451 kts | 270° |
| 2026-05-04 15:23 | 45.29401 | 13.91704 | 32098 ft | 451 kts | 270° |
| 2026-05-04 15:23 | 45.29504 | 13.82793 | 32093 ft | 451 kts | 270° |
| 2026-05-04 15:24 | 45.29682 | 13.64989 | 32094 ft | 452 kts | 270° |
| 2026-05-04 15:25 | 45.29757 | 13.56051 | 32087 ft | 452 kts | 270° |
| 2026-05-04 15:26 | 45.29856 | 13.42651 | 32084 ft | 452 kts | 269° |
| 2026-05-04 15:26 | 45.29948 | 13.29250 | 32085 ft | 452 kts | 269° |
| 2026-05-04 15:27 | 45.31000 | 13.15945 | 32079 ft | 453 kts | 278° |
| 2026-05-04 15:28 | 45.32484 | 13.02701 | 32074 ft | 452 kts | 277° |
| 2026-05-04 15:29 | 45.33866 | 12.89427 | 32071 ft | 453 kts | 277° |
| 2026-05-04 15:30 | 45.37118 | 12.58438 | 32069 ft | 454 kts | 277° |
| 2026-05-04 15:31 | 45.38510 | 12.45109 | 32069 ft | 454 kts | 276° |
| 2026-05-04 15:32 | 45.40798 | 12.22886 | 32065 ft | 455 kts | 276° |
| 2026-05-04 15:34 | 45.43052 | 12.00579 | 32074 ft | 455 kts | 276° |
| 2026-05-04 15:34 | 45.44348 | 11.87214 | 32081 ft | 455 kts | 276° |
| 2026-05-04 15:35 | 45.45642 | 11.73799 | 32077 ft | 455 kts | 275° |
| 2026-05-04 15:36 | 45.46864 | 11.60371 | 32073 ft | 456 kts | 276° |
| 2026-05-04 15:36 | 45.47676 | 11.51465 | 32073 ft | 456 kts | 276° |
| 2026-05-04 15:37 | 45.48495 | 11.42504 | 32075 ft | 456 kts | 276° |
| 2026-05-04 15:37 | 45.49314 | 11.33551 | 32074 ft | 456 kts | 276° |
| 2026-05-04 15:38 | 45.50134 | 11.24592 | 32073 ft | 456 kts | 276° |
| 2026-05-04 15:38 | 45.50957 | 11.15618 | 32076 ft | 456 kts | 275° |
| 2026-05-04 15:39 | 45.51749 | 11.06643 | 32068 ft | 456 kts | 275° |
| 2026-05-04 15:40 | 45.52923 | 10.93173 | 32067 ft | 456 kts | 275° |
| 2026-05-04 15:40 | 45.53708 | 10.84183 | 32068 ft | 456 kts | 275° |
| 2026-05-04 15:41 | 45.54487 | 10.75259 | 32069 ft | 456 kts | 275° |
| 2026-05-04 15:41 | 45.55271 | 10.66279 | 32074 ft | 456 kts | 275° |
| 2026-05-04 15:42 | 45.56058 | 10.57280 | 32071 ft | 456 kts | 275° |
| 2026-05-04 15:42 | 45.56843 | 10.48289 | 32066 ft | 456 kts | 275° |
| 2026-05-04 15:43 | 45.57602 | 10.39284 | 32074 ft | 456 kts | 275° |
| 2026-05-04 15:43 | 45.58319 | 10.30348 | 32065 ft | 455 kts | 275° |
| 2026-05-04 15:44 | 45.59041 | 10.21369 | 32067 ft | 454 kts | 275° |
| 2026-05-04 15:44 | 45.59763 | 10.12412 | 32069 ft | 453 kts | 275° |
| 2026-05-04 15:45 | 45.60480 | 10.03491 | 32071 ft | 451 kts | 275° |
| 2026-05-04 15:45 | 45.61160 | 9.94589 | 32090 ft | 449 kts | 274° |
| 2026-05-04 15:46 | 45.61824 | 9.85794 | 32087 ft | 447 kts | 274° |
| 2026-05-04 15:46 | 45.62492 | 9.76970 | 32083 ft | 447 kts | 274° |
| 2026-05-04 15:47 | 45.63163 | 9.68119 | 32095 ft | 448 kts | 274° |
| 2026-05-04 15:47 | 45.63838 | 9.59261 | 32096 ft | 449 kts | 274° |
| 2026-05-04 15:47 | 45.64163 | 9.54821 | 32202 ft | 449 kts | 274° |
| 2026-05-04 15:48 | 45.64488 | 9.50376 | 32193 ft | 449 kts | 274° |
| 2026-05-04 15:48 | 45.65429 | 9.37108 | 32175 ft | 449 kts | 275° |
| 2026-05-04 15:49 | 45.65985 | 9.28236 | 32160 ft | 447 kts | 271° |
| 2026-05-04 15:49 | 45.66361 | 9.19398 | 32091 ft | 448 kts | 271° |
| 2026-05-04 15:50 | 45.66760 | 9.10508 | 32090 ft | 448 kts | 272° |
| 2026-05-04 15:50 | 45.67234 | 9.01689 | 32092 ft | 447 kts | 271° |
| 2026-05-04 15:51 | 45.67684 | 8.92819 | 32091 ft | 447 kts | 271° |
| 2026-05-04 15:51 | 45.68133 | 8.83963 | 32090 ft | 446 kts | 271° |
| 2026-05-04 15:52 | 45.68582 | 8.75116 | 32090 ft | 445 kts | 271° |
| 2026-05-04 15:52 | 45.69002 | 8.66336 | 32088 ft | 444 kts | 271° |
| 2026-05-04 15:53 | 45.69407 | 8.57517 | 32091 ft | 443 kts | 271° |
| 2026-05-04 15:53 | 45.69798 | 8.48710 | 32099 ft | 442 kts | 271° |
| 2026-05-04 15:54 | 45.70187 | 8.39944 | 32110 ft | 441 kts | 271° |
| 2026-05-04 15:54 | 45.70573 | 8.31168 | 32131 ft | 442 kts | 270° |
| 2026-05-04 15:55 | 45.70959 | 8.22385 | 32138 ft | 442 kts | 270° |
| 2026-05-04 15:55 | 45.71343 | 8.13666 | 32147 ft | 441 kts | 270° |
| 2026-05-04 15:56 | 45.71760 | 8.04900 | 32155 ft | 441 kts | 272° |
| 2026-05-04 15:56 | 45.72460 | 7.96183 | 32163 ft | 440 kts | 274° |
| 2026-05-04 15:57 | 45.73206 | 7.87511 | 32168 ft | 439 kts | 274° |
| 2026-05-04 15:57 | 45.73871 | 7.79501 | 32170 ft | 439 kts | 274° |
| 2026-05-04 15:58 | 45.74607 | 7.70870 | 32162 ft | 439 kts | 274° |
| 2026-05-04 15:58 | 45.75335 | 7.62178 | 32155 ft | 440 kts | 274° |
| 2026-05-04 15:59 | 45.76052 | 7.53452 | 32146 ft | 441 kts | 273° |
| 2026-05-04 15:59 | 45.76775 | 7.44752 | 32146 ft | 442 kts | 274° |
| 2026-05-04 16:00 | 45.77376 | 7.37421 | 32141 ft | 443 kts | 274° |
| 2026-05-04 16:00 | 45.77964 | 7.33125 | 32130 ft | 449 kts | 286° |
| 2026-05-04 16:00 | 45.79541 | 7.29158 | 32137 ft | 461 kts | 306° |
| 2026-05-04 16:01 | 45.81907 | 7.26082 | 32148 ft | 470 kts | 320° |
| 2026-05-04 16:01 | 45.84735 | 7.23673 | 32144 ft | 477 kts | 332° |
| 2026-05-04 16:01 | 45.90730 | 7.19586 | 32138 ft | 475 kts | 328° |
| 2026-05-04 16:02 | 45.96538 | 7.15173 | 32126 ft | 475 kts | 329° |
| 2026-05-04 16:03 | 46.04588 | 7.07159 | 32075 ft | 467 kts | 319° |
| 2026-05-04 16:03 | 46.09779 | 7.01528 | 32078 ft | 466 kts | 319° |
| 2026-05-04 16:04 | 46.15003 | 6.96032 | 32074 ft | 468 kts | 320° |
| 2026-05-04 16:04 | 46.22956 | 6.87712 | 32066 ft | 472 kts | 320° |
| 2026-05-04 16:05 | 46.28289 | 6.82119 | 32073 ft | 474 kts | 320° |
| 2026-05-04 16:06 | 46.36309 | 6.73682 | 32074 ft | 478 kts | 320° |
| 2026-05-04 16:06 | 46.43246 | 6.65742 | 32066 ft | 472 kts | 307° |
| 2026-05-04 16:07 | 46.45729 | 6.60558 | 32079 ft | 463 kts | 293° |
| 2026-05-04 16:08 | 46.51662 | 6.43968 | 32082 ft | 466 kts | 294° |
| 2026-05-04 16:09 | 46.59508 | 6.23316 | 32072 ft | 467 kts | 294° |
| 2026-05-04 16:10 | 46.65806 | 6.06911 | 32048 ft | 463 kts | 294° |
| 2026-05-04 16:11 | 46.72074 | 5.90587 | 32040 ft | 460 kts | 294° |
| 2026-05-04 16:12 | 46.82589 | 5.67380 | 32017 ft | 475 kts | 321° |
| 2026-05-04 16:13 | 46.88509 | 5.62898 | 32018 ft | 485 kts | 338° |
| 2026-05-04 16:13 | 46.94764 | 5.59229 | 32018 ft | 482 kts | 329° |
| 2026-05-04 16:14 | 47.06485 | 5.49744 | 32008 ft | 483 kts | 326° |
| 2026-05-04 16:16 | 47.21199 | 5.37664 | 32010 ft | 486 kts | 326° |
| 2026-05-04 16:17 | 47.35962 | 5.25431 | 32007 ft | 488 kts | 326° |
| 2026-05-04 16:18 | 47.47777 | 5.15591 | 32006 ft | 489 kts | 326° |
| 2026-05-04 16:19 | 47.61844 | 5.02031 | 31999 ft | 475 kts | 315° |
| 2026-05-04 16:20 | 47.74298 | 4.86193 | 31950 ft | 471 kts | 314° |
| 2026-05-04 16:21 | 47.81753 | 4.76588 | 30690 ft | 473 kts | 314° |
| 2026-05-04 16:22 | 47.86696 | 4.70208 | 29621 ft | 473 kts | 314° |
| 2026-05-04 16:22 | 47.94146 | 4.60583 | 27881 ft | 470 kts | 314° |
| 2026-05-04 16:23 | 48.01418 | 4.51205 | 26174 ft | 453 kts | 314° |
| 2026-05-04 16:24 | 48.10743 | 4.39227 | 24179 ft | 430 kts | 315° |
| 2026-05-04 16:25 | 48.15216 | 4.33484 | 23222 ft | 416 kts | 315° |
| 2026-05-04 16:26 | 48.23798 | 4.22183 | 21135 ft | 410 kts | 310° |
| 2026-05-04 16:26 | 48.29207 | 4.12529 | 19682 ft | 397 kts | 305° |
| 2026-05-04 16:27 | 48.32644 | 4.06213 | 18758 ft | 383 kts | 305° |
| 2026-05-04 16:28 | 48.37655 | 3.96896 | 17843 ft | 387 kts | 305° |
| 2026-05-04 16:28 | 48.42671 | 3.87552 | 16973 ft | 379 kts | 306° |
| 2026-05-04 16:29 | 48.49208 | 3.75368 | 15870 ft | 362 kts | 306° |
| 2026-05-04 16:30 | 48.53595 | 3.66277 | 15372 ft | 361 kts | 300° |
| 2026-05-04 16:31 | 48.56391 | 3.59865 | 14940 ft | 366 kts | 300° |
| 2026-05-04 16:31 | 48.60556 | 3.50291 | 14540 ft | 355 kts | 301° |
| 2026-05-04 16:32 | 48.65283 | 3.42002 | 13804 ft | 357 kts | 311° |
| 2026-05-04 16:33 | 48.68723 | 3.36425 | 13308 ft | 351 kts | 307° |
| 2026-05-04 16:33 | 48.71760 | 3.30890 | 12759 ft | 333 kts | 307° |
| 2026-05-04 16:34 | 48.74527 | 3.25528 | 12214 ft | 311 kts | 305° |
| 2026-05-04 16:34 | 48.75761 | 3.22964 | 11943 ft | 300 kts | 302° |
| 2026-05-04 16:35 | 48.79024 | 3.15275 | 11067 ft | 280 kts | 299° |
| 2026-05-04 16:35 | 48.82003 | 3.07779 | 10312 ft | 275 kts | 301° |
| 2026-05-04 16:36 | 48.83120 | 3.05413 | 10077 ft | 276 kts | 305° |
| 2026-05-04 16:36 | 48.85375 | 3.00699 | 9623 ft | 275 kts | 303° |
| 2026-05-04 16:37 | 48.87146 | 2.96709 | 9315 ft | 272 kts | 301° |
| 2026-05-04 16:37 | 48.88398 | 2.93901 | 9089 ft | 269 kts | 305° |
| 2026-05-04 16:37 | 48.91130 | 2.90058 | 8716 ft | 266 kts | 318° |
| 2026-05-04 16:38 | 48.93787 | 2.86200 | 8407 ft | 262 kts | 303° |
| 2026-05-04 16:39 | 48.94422 | 2.78240 | 8060 ft | 262 kts | 266° |
| 2026-05-04 16:39 | 48.94274 | 2.72643 | 7838 ft | 270 kts | 266° |
| 2026-05-04 16:40 | 48.94085 | 2.66904 | 7618 ft | 271 kts | 265° |
| 2026-05-04 16:40 | 48.93888 | 2.61368 | 7347 ft | 251 kts | 265° |
| 2026-05-04 16:41 | 48.93713 | 2.56269 | 7052 ft | 237 kts | 265° |
| 2026-05-04 16:41 | 48.93455 | 2.48782 | 6660 ft | 235 kts | 265° |
| 2026-05-04 16:42 | 48.92804 | 2.41369 | 6315 ft | 241 kts | 260° |
| 2026-05-04 16:43 | 48.92294 | 2.36284 | 6076 ft | 243 kts | 260° |
| 2026-05-04 16:43 | 48.91736 | 2.31239 | 5812 ft | 239 kts | 259° |
| 2026-05-04 16:43 | 48.91457 | 2.28772 | 5690 ft | 234 kts | 259° |
| 2026-05-04 16:44 | 48.90463 | 2.19403 | 5316 ft | 210 kts | 269° |
| 2026-05-04 16:45 | 48.91777 | 2.16660 | 5133 ft | 202 kts | 339° |
| 2026-05-04 16:46 | 48.95679 | 2.17703 | 4856 ft | 187 kts | 49° |
| 2026-05-04 16:46 | 48.96992 | 2.20355 | 4911 ft | 191 kts | 69° |
| 2026-05-04 16:47 | 48.97607 | 2.24218 | 4605 ft | 180 kts | 84° |
| 2026-05-04 16:47 | 48.97829 | 2.27898 | 4069 ft | 177 kts | 90° |
| 2026-05-04 16:48 | 48.98048 | 2.33604 | 3495 ft | 185 kts | 88° |
| 2026-05-04 16:48 | 48.98171 | 2.35579 | 3193 ft | 189 kts | 86° |
| 2026-05-04 16:49 | 48.98411 | 2.39592 | 2671 ft | 188 kts | 88° |
| 2026-05-04 16:49 | 48.98586 | 2.43488 | 2030 ft | 173 kts | 87° |
| 2026-05-04 16:50 | 48.98776 | 2.46932 | 1587 ft | 149 kts | 90° |
| 2026-05-04 16:50 | 48.98941 | 2.49976 | 1243 ft | 152 kts | 90° |
| 2026-05-04 16:51 | 48.99113 | 2.53117 | 853 ft | 146 kts | 87° |
| 2026-05-04 16:51 | 48.99198 | 2.54654 | 652 ft | 145 kts | 86° |
| 2026-05-04 16:51 | 48.99349 | 2.57633 | 355 ft | 122 kts | 85° |
| 2026-05-04 16:52 | 48.99443 | 2.59172 | 360 ft | 38 kts | 72° |
| 2026-05-04 16:52 | 48.99507 | 2.59389 | 362 ft | 15 kts | 64° |
| 2026-05-04 16:53 | 48.99574 | 2.59603 | 363 ft | 6 kts | 65° |
| 2026-05-04 16:53 | 48.99676 | 2.59688 | 357 ft | 7 kts | 358° |
| 2026-05-04 16:54 | 48.99735 | 2.59682 | 357 ft | 11 kts | 356° |
| 2026-05-04 16:55 | 49.00082 | 2.59639 | 360 ft | 16 kts | 355° |
| 2026-05-04 16:55 | 49.00313 | 2.59610 | 360 ft | 18 kts | 355° |
| 2026-05-04 16:56 | 49.00569 | 2.59577 | 359 ft | 19 kts | 355° |
| 2026-05-04 16:56 | 49.00889 | 2.59467 | 360 ft | 12 kts | 271° |
| 2026-05-04 16:57 | 49.00883 | 2.59332 | 358 ft | 14 kts | 265° |
| 2026-05-04 16:57 | 49.00864 | 2.58973 | 365 ft | 20 kts | 265° |
| 2026-05-04 16:58 | 49.00828 | 2.58284 | 358 ft | 20 kts | 265° |
| 2026-05-04 16:58 | 49.00815 | 2.58070 | 361 ft | 20 kts | 265° |
| 2026-05-04 16:59 | 49.00793 | 2.57640 | 366 ft | 20 kts | 265° |
| 2026-05-04 17:00 | 49.00668 | 2.57080 | 360 ft | 8 kts | 256° |
| 2026-05-04 17:00 | 49.00663 | 2.56799 | 362 ft | 6 kts | 340° |
| 2026-05-04 17:01 | 49.00708 | 2.56789 | 358 ft | 1 kts | 355° |
| 2026-05-04 17:01 | 49.00709 | 2.56789 | 364 ft | 0 kts | 355° |